createdAt,value
2022-10-01T00:01:26.309Z,6.20
2022-10-01T00:03:53.725Z,7.97
2022-10-01T00:06:22.445Z,7.18
2022-10-01T00:08:50.902Z,7.25
2022-10-01T00:11:19.796Z,7.53
2022-10-01T00:13:47.630Z,10.35
2022-10-01T00:16:16.623Z,7.53
2022-10-01T00:18:45.605Z,10.80
2022-10-01T00:21:14.728Z,8.93
2022-10-01T00:23:42.595Z,10.63
2022-10-01T00:26:15.546Z,7.28
2022-10-01T00:28:43.416Z,8.40
2022-10-01T00:31:11.242Z,5.28
2022-10-01T00:33:38.626Z,8.43
2022-10-01T00:36:06.942Z,6.13
2022-10-01T00:38:34.534Z,12.75
2022-10-01T00:41:02.060Z,10.30
2022-10-01T00:43:37.739Z,9.10
2022-10-01T00:46:23.689Z,8.65
2022-10-01T00:48:57.466Z,7.97
2022-10-01T00:51:27.380Z,5.72
2022-10-01T00:53:57.217Z,6.23
2022-10-01T00:56:24.787Z,9.02
2022-10-01T00:58:54.247Z,9.88
2022-10-01T01:01:21.683Z,8.45
2022-10-01T01:03:49.180Z,9.55
2022-10-01T01:06:16.490Z,6.10
2022-10-01T01:08:44.049Z,6.40
2022-10-01T01:11:11.322Z,4.53
2022-10-01T01:13:44.984Z,4.68
2022-10-01T01:16:15.341Z,5.53
2022-10-01T01:18:47.971Z,6.90
2022-10-01T01:21:23.650Z,6.07
2022-10-01T01:23:50.964Z,5.60
2022-10-01T01:26:31.590Z,6.10
2022-10-01T01:29:02.757Z,6.05
2022-10-01T01:31:34.348Z,5.33
2022-10-01T01:34:03.284Z,5.30
2022-10-01T01:36:32.638Z,7.32
2022-10-01T01:39:03.995Z,6.53
2022-10-01T01:41:35.238Z,5.10
2022-10-01T01:44:04.316Z,4.63
2022-10-01T01:46:34.334Z,6.90
2022-10-01T01:49:04.263Z,6.93
2022-10-01T01:51:39.693Z,6.28
2022-10-01T01:54:07.057Z,6.03
2022-10-01T01:56:34.554Z,4.13
2022-10-01T01:59:02.058Z,5.05
2022-10-01T02:01:37.841Z,4.72
2022-10-01T02:04:10.705Z,5.50
2022-10-01T02:07:04.413Z,5.25
2022-10-01T02:09:41.909Z,5.03
2022-10-01T02:12:14.920Z,4.75
2022-10-01T02:14:48.044Z,2.92
2022-10-01T02:17:27.519Z,4.13
2022-10-01T02:19:58.684Z,3.63
2022-10-01T02:22:31.789Z,2.63
2022-10-01T02:25:00.725Z,5.85
2022-10-01T02:27:37.203Z,3.53
2022-10-01T02:30:07.898Z,3.50
2022-10-01T02:32:37.726Z,4.13
2022-10-01T02:35:06.520Z,3.00
2022-10-01T02:37:34.752Z,4.38
2022-10-01T02:40:02.949Z,4.93
2022-10-01T02:42:30.798Z,3.00
2022-10-01T02:45:02.655Z,4.68
2022-10-01T02:47:34.178Z,3.17
2022-10-01T02:50:02.610Z,3.15
2022-10-01T02:52:29.908Z,4.10
2022-10-01T02:55:09.895Z,3.13
2022-10-01T02:57:37.681Z,4.40
2022-10-01T03:00:07.184Z,3.80
2022-10-01T03:02:34.856Z,4.40
2022-10-01T03:05:02.281Z,4.72
2022-10-01T03:07:30.984Z,4.10
2022-10-01T03:09:58.475Z,4.32
2022-10-01T03:12:25.823Z,3.77
2022-10-01T03:14:53.783Z,3.67
2022-10-01T03:17:21.198Z,4.60
2022-10-01T03:19:48.755Z,4.10
2022-10-01T03:22:18.507Z,4.15
2022-10-01T03:24:45.817Z,4.47
2022-10-01T03:27:13.300Z,5.75
2022-10-01T03:29:40.622Z,5.38
2022-10-01T03:32:07.996Z,5.70
2022-10-01T03:34:35.303Z,5.88
2022-10-01T03:37:02.687Z,5.23
2022-10-01T03:39:29.963Z,6.03
2022-10-01T03:41:57.248Z,4.85
2022-10-01T03:44:24.620Z,5.10
2022-10-01T03:46:52.212Z,5.30
2022-10-01T03:49:19.495Z,5.93
2022-10-01T03:51:47.137Z,5.07
2022-10-01T03:54:14.600Z,6.68
2022-10-01T03:56:42.688Z,6.60
2022-10-01T03:59:11.086Z,5.78
2022-10-01T04:01:39.302Z,6.47
2022-10-01T04:04:07.227Z,5.38
2022-10-01T04:06:34.520Z,5.95
2022-10-01T04:09:01.955Z,5.80
2022-10-01T04:11:29.217Z,5.70
2022-10-01T04:13:58.006Z,5.47
2022-10-01T04:16:25.560Z,6.43
2022-10-01T04:18:52.980Z,6.47
2022-10-01T04:21:20.307Z,6.10
2022-10-01T04:23:47.736Z,6.03
2022-10-01T04:26:15.012Z,6.10
2022-10-01T04:28:45.142Z,6.03
2022-10-01T04:31:25.025Z,5.30
2022-10-01T04:33:56.031Z,4.88
2022-10-01T04:36:24.303Z,5.97
2022-10-01T04:38:59.368Z,6.17
2022-10-01T04:41:31.006Z,5.25
2022-10-01T04:43:59.954Z,6.53
2022-10-01T04:46:27.744Z,6.60
2022-10-01T04:48:55.051Z,6.55
2022-10-01T04:51:22.297Z,7.33
2022-10-01T04:53:49.604Z,5.63
2022-10-01T04:56:17.094Z,8.70
2022-10-01T04:58:44.400Z,6.97
2022-10-01T05:01:11.809Z,7.35
2022-10-01T05:03:39.855Z,6.00
2022-10-01T05:06:07.215Z,6.05
2022-10-01T05:08:34.499Z,6.45
2022-10-01T05:11:01.758Z,7.13
2022-10-01T05:13:30.347Z,7.40
2022-10-01T05:15:58.112Z,5.80
2022-10-01T05:18:25.526Z,6.50
2022-10-01T05:20:52.858Z,6.05
2022-10-01T05:23:20.148Z,6.03
2022-10-01T05:25:47.509Z,8.77
2022-10-01T05:28:21.300Z,7.20
2022-10-01T05:30:49.613Z,6.43
2022-10-01T05:33:16.908Z,7.82
2022-10-01T05:35:44.550Z,8.63
2022-10-01T05:38:13.094Z,8.13
2022-10-01T05:40:40.456Z,7.10
2022-10-01T05:43:07.747Z,10.35
2022-10-01T05:45:35.883Z,8.15
2022-10-01T05:48:04.919Z,7.28
2022-10-01T05:50:33.182Z,7.93
2022-10-01T05:53:01.085Z,8.00
2022-10-01T05:55:33.381Z,6.70
2022-10-01T05:58:06.824Z,11.70
2022-10-01T06:00:34.693Z,7.97
2022-10-01T06:03:03.202Z,15.43
2022-10-01T06:05:31.741Z,8.97
2022-10-01T06:07:59.050Z,11.65
2022-10-01T06:10:29.168Z,7.55
2022-10-01T06:13:01.882Z,7.65
2022-10-01T06:15:30.059Z,7.13
2022-10-01T06:17:57.407Z,6.40
2022-10-01T06:20:24.781Z,8.63
2022-10-01T06:22:56.778Z,7.80
2022-10-01T06:25:24.211Z,6.68
2022-10-01T06:27:58.017Z,14.23
2022-10-01T06:30:29.626Z,7.80
2022-10-01T06:33:02.841Z,9.43
2022-10-01T06:35:30.825Z,8.38
2022-10-01T06:37:58.271Z,8.63
2022-10-01T06:40:25.872Z,6.28
2022-10-01T06:42:56.752Z,6.20
2022-10-01T06:45:24.294Z,6.93
2022-10-01T06:47:58.665Z,6.82
2022-10-01T06:50:26.518Z,7.05
2022-10-01T06:52:54.128Z,5.65
2022-10-01T06:55:23.066Z,5.93
2022-10-01T06:57:55.566Z,6.47
2022-10-01T07:00:22.983Z,5.60
2022-10-01T07:02:50.418Z,6.50
2022-10-01T07:05:18.166Z,6.18
2022-10-01T07:07:45.441Z,7.70
2022-10-01T07:10:13.183Z,5.68
2022-10-01T07:12:40.740Z,10.95
2022-10-01T07:15:09.158Z,7.45
2022-10-01T07:17:43.869Z,6.47
2022-10-01T07:20:11.286Z,5.43
2022-10-01T07:22:38.755Z,7.95
2022-10-01T07:25:06.332Z,7.63
2022-10-01T07:27:33.729Z,8.43
2022-10-01T07:30:01.141Z,8.30
2022-10-01T07:32:31.570Z,6.53
2022-10-01T07:34:59.264Z,8.45
2022-10-01T07:37:26.635Z,5.45
2022-10-01T07:39:54.168Z,9.82
2022-10-01T07:42:21.762Z,7.20
2022-10-01T07:44:49.064Z,11.27
2022-10-01T07:47:16.555Z,7.10
2022-10-01T07:49:43.922Z,5.80
2022-10-01T07:52:13.475Z,3.67
2022-10-01T07:54:40.901Z,6.00
2022-10-01T07:57:11.092Z,4.90
2022-10-01T07:59:40.921Z,9.57
2022-10-01T08:02:15.798Z,5.18
2022-10-01T08:05:02.121Z,5.30
2022-10-01T08:07:31.870Z,7.07
2022-10-01T08:09:59.142Z,6.60
2022-10-01T08:12:30.468Z,7.78
2022-10-01T08:14:57.830Z,8.30
2022-10-01T08:17:29.344Z,6.72
2022-10-01T08:19:56.932Z,8.05
2022-10-01T08:22:24.219Z,7.07
2022-10-01T08:24:51.544Z,9.95
2022-10-01T08:27:18.925Z,6.90
2022-10-01T08:29:46.308Z,11.05
2022-10-01T08:32:13.664Z,6.88
2022-10-01T08:34:41.039Z,8.07
2022-10-01T08:37:08.425Z,11.43
2022-10-01T08:39:37.122Z,11.45
2022-10-01T08:42:08.869Z,9.57
2022-10-01T08:44:44.141Z,13.90
2022-10-01T08:47:15.674Z,11.77
2022-10-01T08:49:45.848Z,9.07
2022-10-01T08:52:32.671Z,8.23
2022-10-01T08:55:11.465Z,10.65
2022-10-01T08:57:42.297Z,9.07
2022-10-01T09:00:14.373Z,9.63
2022-10-01T09:02:43.486Z,8.98
2022-10-01T09:05:19.922Z,12.73
2022-10-01T09:08:05.603Z,10.43
2022-10-01T09:10:47.121Z,8.10
2022-10-01T09:13:17.427Z,7.90
2022-10-01T09:15:59.415Z,10.93
2022-10-01T09:18:35.329Z,11.27
2022-10-01T09:21:03.433Z,9.40
2022-10-01T09:23:32.183Z,8.45
2022-10-01T09:26:00.010Z,10.47
2022-10-01T09:28:36.731Z,11.05
2022-10-01T09:31:17.333Z,12.35
2022-10-01T09:33:59.244Z,10.77
2022-10-01T09:36:34.265Z,9.27
2022-10-01T09:39:10.662Z,6.07
2022-10-01T09:41:38.858Z,10.73
2022-10-01T09:44:06.863Z,12.07
2022-10-01T09:46:34.421Z,8.57
2022-10-01T09:49:01.963Z,10.57
2022-10-01T09:51:34.057Z,10.60
2022-10-01T09:54:04.237Z,7.55
2022-10-01T09:56:35.057Z,12.15
2022-10-01T09:59:05.267Z,9.20
2022-10-01T10:01:35.837Z,11.20
2022-10-01T10:04:03.380Z,8.67
2022-10-01T10:06:32.381Z,8.98
2022-10-01T10:09:01.237Z,7.97
2022-10-01T10:11:30.910Z,6.60
2022-10-01T10:14:00.313Z,8.55
2022-10-01T10:16:29.247Z,10.03
2022-10-01T10:19:03.747Z,8.57
2022-10-01T10:21:34.002Z,7.88
2022-10-01T10:24:03.092Z,7.05
2022-10-01T10:26:32.633Z,7.60
2022-10-01T10:29:02.198Z,4.97
2022-10-01T10:31:36.653Z,6.13
2022-10-01T10:34:07.212Z,7.88
2022-10-01T10:36:36.476Z,6.85
2022-10-01T10:39:05.939Z,6.15
2022-10-01T10:41:35.204Z,5.67
2022-10-01T10:44:07.293Z,5.53
2022-10-01T10:46:44.029Z,7.20
2022-10-01T10:49:18.861Z,6.68
2022-10-01T10:51:51.390Z,6.45
2022-10-01T10:54:20.062Z,6.43
2022-10-01T10:56:54.935Z,6.88
2022-10-01T10:59:22.291Z,6.38
2022-10-01T11:01:50.787Z,7.50
2022-10-01T11:04:25.050Z,9.20
2022-10-01T11:06:56.417Z,7.33
2022-10-01T11:09:24.959Z,7.57
2022-10-01T11:12:25.085Z,8.65
2022-10-01T11:14:58.031Z,5.97
2022-10-01T11:17:35.158Z,6.47
2022-10-01T11:20:08.999Z,6.40
2022-10-01T11:22:36.258Z,4.75
2022-10-01T11:25:03.538Z,7.05
2022-10-01T11:27:49.211Z,9.15
2022-10-01T11:30:22.632Z,6.82
2022-10-01T11:33:03.506Z,6.43
2022-10-01T11:35:42.262Z,6.00
2022-10-01T11:38:37.938Z,10.07
2022-10-01T11:41:24.220Z,11.45
2022-10-01T11:43:56.438Z,10.20
2022-10-01T11:46:33.351Z,9.63
2022-10-01T11:49:03.891Z,5.90
2022-10-01T11:51:36.941Z,9.75
2022-10-01T11:54:07.814Z,6.78
2022-10-01T11:56:57.101Z,6.60
2022-10-01T11:59:29.510Z,5.23
2022-10-01T12:02:15.843Z,5.68
2022-10-01T12:04:47.618Z,6.95
2022-10-01T12:07:22.638Z,7.03
2022-10-01T12:09:55.833Z,7.07
2022-10-01T12:12:38.280Z,6.73
2022-10-01T12:15:20.440Z,7.97
2022-10-01T12:17:52.250Z,9.73
2022-10-01T12:20:32.302Z,9.98
2022-10-01T12:23:00.564Z,7.80
2022-10-01T12:25:33.068Z,7.80
2022-10-01T12:28:13.441Z,6.68
2022-10-01T12:30:51.415Z,8.43
2022-10-01T12:33:31.373Z,6.38
2022-10-01T12:36:07.710Z,9.13
2022-10-01T12:38:41.121Z,6.20
2022-10-01T12:41:42.111Z,8.52
2022-10-01T12:44:15.598Z,9.15
2022-10-01T12:46:46.396Z,8.80
2022-10-01T12:49:13.691Z,10.85
2022-10-01T12:51:54.148Z,8.07
2022-10-01T12:54:30.236Z,10.98
2022-10-01T12:57:12.743Z,9.32
2022-10-01T12:59:40.912Z,8.65
2022-10-01T13:02:23.724Z,5.68
2022-10-01T13:05:26.869Z,13.27
2022-10-01T13:07:56.571Z,5.25
2022-10-01T13:10:23.888Z,5.65
2022-10-01T13:13:01.230Z,5.72
2022-10-01T13:15:39.122Z,8.75
2022-10-01T13:18:09.521Z,5.87
2022-10-01T13:20:54.067Z,7.78
2022-10-01T13:23:39.912Z,9.43
2022-10-01T13:26:11.916Z,9.95
2022-10-01T13:28:53.266Z,8.73
2022-10-01T13:31:20.634Z,8.80
2022-10-01T13:33:57.737Z,9.02
2022-10-01T13:36:36.594Z,8.07
2022-10-01T13:39:04.106Z,7.40
2022-10-01T13:41:33.181Z,9.45
2022-10-01T13:44:03.810Z,5.67
2022-10-01T13:46:32.865Z,6.03
2022-10-01T13:49:07.384Z,5.78
2022-10-01T13:51:38.045Z,8.38
2022-10-01T13:54:09.319Z,9.52
2022-10-01T13:56:37.819Z,5.90
2022-10-01T13:59:20.949Z,8.88
2022-10-01T14:01:48.309Z,7.90
2022-10-01T14:04:24.898Z,8.23
2022-10-01T14:06:56.807Z,8.07
2022-10-01T14:09:27.177Z,8.33
2022-10-01T14:12:34.400Z,9.52
2022-10-01T14:15:22.137Z,7.18
2022-10-01T14:17:53.374Z,7.47
2022-10-01T14:20:25.246Z,7.88
2022-10-01T14:23:04.791Z,9.07
2022-10-01T14:25:53.617Z,6.97
2022-10-01T14:28:30.675Z,10.45
2022-10-01T14:31:06.908Z,9.45
2022-10-01T14:33:53.047Z,4.10
2022-10-01T14:36:29.486Z,8.20
2022-10-01T14:39:14.667Z,7.47
2022-10-01T14:41:42.530Z,6.35
2022-10-01T14:44:36.257Z,12.02
2022-10-01T14:47:13.667Z,11.40
2022-10-01T14:49:40.957Z,6.97
2022-10-01T14:52:16.643Z,7.50
2022-10-01T14:55:04.978Z,6.22
2022-10-01T14:57:36.977Z,8.00
2022-10-01T15:00:11.035Z,13.55
2022-10-01T15:02:48.319Z,2.90
2022-10-01T15:05:29.410Z,6.50
2022-10-01T15:07:56.688Z,6.63
2022-10-01T15:10:27.340Z,6.80
2022-10-01T15:12:55.384Z,8.23
2022-10-01T15:15:29.652Z,8.40
2022-10-01T15:17:57.056Z,8.48
2022-10-01T15:20:24.324Z,5.82
2022-10-01T15:23:01.064Z,8.55
2022-10-01T15:25:29.910Z,7.82
2022-10-01T15:27:57.250Z,7.20
2022-10-01T15:30:26.423Z,5.20
2022-10-01T15:32:54.049Z,7.68
2022-10-01T15:35:22.617Z,7.45
2022-10-01T15:37:51.519Z,6.95
2022-10-01T15:40:30.158Z,6.47
2022-10-01T15:43:17.724Z,7.78
2022-10-01T15:45:45.295Z,7.85
2022-10-01T15:48:30.095Z,6.20
2022-10-01T15:51:02.943Z,4.50
2022-10-01T15:53:30.602Z,8.20
2022-10-01T15:55:59.966Z,11.45
2022-10-01T15:58:32.487Z,10.82
2022-10-01T16:01:10.363Z,9.90
2022-10-01T16:03:42.460Z,7.45
2022-10-01T16:06:23.731Z,8.60
2022-10-01T16:08:51.040Z,8.13
2022-10-01T16:11:20.197Z,10.68
2022-10-01T16:13:49.209Z,12.90
2022-10-01T16:16:20.962Z,5.97
2022-10-01T16:18:52.574Z,9.40
2022-10-01T16:21:19.950Z,9.23
2022-10-01T16:23:49.478Z,13.27
2022-10-01T16:26:29.000Z,7.80
2022-10-01T16:28:56.293Z,7.40
2022-10-01T16:31:24.578Z,8.13
2022-10-01T16:33:52.390Z,7.85
2022-10-01T16:36:20.738Z,8.95
2022-10-01T16:38:48.646Z,8.00
2022-10-01T16:41:19.692Z,13.05
2022-10-01T16:43:46.990Z,8.03
2022-10-01T16:46:14.321Z,6.78
2022-10-01T16:48:41.661Z,7.25
2022-10-01T16:51:09.025Z,7.07
2022-10-01T16:53:36.372Z,7.53
2022-10-01T16:56:03.656Z,8.87
2022-10-01T16:58:30.970Z,8.07
2022-10-01T17:00:58.424Z,8.23
2022-10-01T17:03:26.928Z,9.35
2022-10-01T17:05:54.249Z,10.07
2022-10-01T17:08:28.013Z,10.87
2022-10-01T17:10:59.101Z,7.50
2022-10-01T17:13:27.511Z,13.02
2022-10-01T17:15:54.999Z,4.75
2022-10-01T17:18:22.618Z,12.02
2022-10-01T17:20:50.123Z,12.37
2022-10-01T17:23:18.655Z,13.00
2022-10-01T17:25:46.564Z,9.18
2022-10-01T17:28:15.706Z,5.20
2022-10-01T17:30:48.157Z,11.63
2022-10-01T17:33:16.439Z,6.20
2022-10-01T17:35:44.723Z,9.93
2022-10-01T17:38:12.433Z,9.40
2022-10-01T17:40:41.350Z,13.98
2022-10-01T17:43:10.864Z,13.75
2022-10-01T17:45:38.306Z,9.20
2022-10-01T17:48:05.775Z,11.65
2022-10-01T17:50:33.166Z,9.20
2022-10-01T17:53:00.860Z,9.70
2022-10-01T17:55:28.559Z,9.32
2022-10-01T17:57:56.025Z,9.87
2022-10-01T18:00:23.333Z,12.20
2022-10-01T18:02:50.991Z,11.57
2022-10-01T18:05:18.310Z,11.95
2022-10-01T18:07:45.673Z,7.53
2022-10-01T18:10:13.722Z,10.43
2022-10-01T18:12:41.468Z,7.47
2022-10-01T18:15:09.463Z,16.73
2022-10-01T18:17:42.903Z,10.35
2022-10-01T18:20:10.898Z,14.73
2022-10-01T18:22:38.476Z,8.53
2022-10-01T18:25:07.041Z,11.18
2022-10-01T18:27:34.800Z,11.25
2022-10-01T18:30:02.111Z,10.10
2022-10-01T18:32:34.739Z,15.60
2022-10-01T18:35:02.828Z,7.80
2022-10-01T18:37:36.326Z,10.77
2022-10-01T18:40:30.514Z,10.57
2022-10-01T18:43:09.231Z,9.23
2022-10-01T18:45:45.829Z,9.77
2022-10-01T18:48:16.162Z,10.90
2022-10-01T18:50:43.419Z,9.48
2022-10-01T18:53:14.665Z,10.07
2022-10-01T18:55:50.205Z,8.18
2022-10-01T18:58:20.576Z,8.70
2022-10-01T19:00:56.972Z,14.33
2022-10-01T19:03:24.499Z,7.78
2022-10-01T19:06:10.675Z,11.27
2022-10-01T19:08:41.042Z,13.75
2022-10-01T19:11:17.982Z,11.60
2022-10-01T19:14:05.148Z,9.43
2022-10-01T19:16:35.873Z,8.40
2022-10-01T19:19:15.595Z,8.93
2022-10-01T19:21:55.479Z,7.53
2022-10-01T19:24:22.771Z,9.05
2022-10-01T19:26:57.694Z,10.07
2022-10-01T19:29:28.727Z,8.77
2022-10-01T19:31:58.519Z,12.05
2022-10-01T19:34:31.865Z,10.13
2022-10-01T19:37:31.705Z,15.07
2022-10-01T19:40:01.985Z,9.63
2022-10-01T19:42:34.775Z,8.77
2022-10-01T19:45:15.313Z,10.15
2022-10-01T19:47:51.197Z,8.32
2022-10-01T19:50:20.416Z,9.35
2022-10-01T19:52:51.492Z,10.47
2022-10-01T19:55:20.145Z,8.02
2022-10-01T19:57:47.944Z,9.65
2022-10-01T20:00:20.204Z,11.63
2022-10-01T20:02:51.270Z,10.70
2022-10-01T20:05:26.356Z,10.40
2022-10-01T20:08:16.228Z,11.95
2022-10-01T20:10:46.761Z,10.50
2022-10-01T20:13:14.115Z,9.60
2022-10-01T20:15:44.621Z,9.63
2022-10-01T20:18:18.177Z,11.80
2022-10-01T20:20:45.422Z,9.02
2022-10-01T20:23:26.020Z,12.88
2022-10-01T20:26:02.069Z,7.82
2022-10-01T20:28:44.796Z,9.60
2022-10-01T20:31:16.313Z,12.47
2022-10-01T20:33:56.579Z,10.10
2022-10-01T20:36:34.032Z,6.95
2022-10-01T20:39:05.740Z,8.50
2022-10-01T20:41:42.574Z,10.77
2022-10-01T20:44:11.782Z,8.07
2022-10-01T20:46:50.213Z,10.65
2022-10-01T20:49:20.630Z,10.25
2022-10-01T20:51:54.688Z,9.43
2022-10-01T20:54:28.619Z,6.55
2022-10-01T20:57:02.001Z,10.23
2022-10-01T20:59:40.896Z,12.88
2022-10-01T21:02:14.178Z,11.25
2022-10-01T21:04:44.212Z,12.02
2022-10-01T21:07:23.873Z,16.17
2022-10-01T21:09:53.275Z,12.20
2022-10-01T21:12:22.466Z,13.23
2022-10-01T21:14:49.782Z,14.23
2022-10-01T21:17:56.743Z,15.98
2022-10-01T21:20:39.860Z,14.60
2022-10-01T21:23:07.174Z,13.17
2022-10-01T21:25:39.971Z,17.65
2022-10-01T21:28:13.525Z,12.35
2022-10-01T21:30:43.940Z,16.60
2022-10-01T21:33:15.606Z,15.60
2022-10-01T21:35:43.140Z,15.37
2022-10-01T21:38:30.309Z,19.08
2022-10-01T21:40:57.862Z,21.13
2022-10-01T21:43:35.836Z,22.77
2022-10-01T21:46:09.647Z,19.42
2022-10-01T21:48:41.439Z,25.23
2022-10-01T21:51:22.376Z,22.85
2022-10-01T21:53:49.684Z,21.63
2022-10-01T21:56:43.347Z,20.23
2022-10-01T21:59:29.506Z,22.95
2022-10-01T22:02:18.211Z,22.03
2022-10-01T22:04:58.876Z,18.77
2022-10-01T22:07:28.804Z,16.58
2022-10-01T22:09:59.687Z,23.20
2022-10-01T22:12:28.783Z,12.27
2022-10-01T22:14:57.309Z,18.00
2022-10-01T22:17:27.566Z,16.40
2022-10-01T22:19:56.945Z,20.45
2022-10-01T22:22:31.387Z,21.63
2022-10-01T22:24:59.963Z,18.50
2022-10-01T22:27:33.486Z,18.03
2022-10-01T22:30:09.812Z,11.43
2022-10-01T22:33:00.519Z,19.63
2022-10-01T22:35:31.482Z,20.33
2022-10-01T22:38:02.881Z,17.92
2022-10-01T22:40:33.571Z,14.03
2022-10-01T22:43:11.710Z,18.42
2022-10-01T22:45:45.216Z,15.57
2022-10-01T22:48:12.515Z,16.75
2022-10-01T22:50:39.774Z,22.40
2022-10-01T22:53:16.242Z,19.57
2022-10-01T22:55:54.319Z,15.52
2022-10-01T22:58:22.198Z,17.38
2022-10-01T23:01:16.434Z,20.27
2022-10-01T23:04:02.749Z,21.30
2022-10-01T23:06:46.539Z,17.00
2022-10-01T23:09:13.816Z,12.50
2022-10-01T23:11:41.110Z,9.45
2022-10-01T23:14:14.674Z,10.02
2022-10-01T23:16:49.726Z,6.40
2022-10-01T23:19:26.340Z,7.00
2022-10-01T23:21:57.476Z,10.15
2022-10-01T23:24:37.095Z,4.35
2022-10-01T23:27:19.856Z,6.03
2022-10-01T23:29:59.666Z,3.58
2022-10-01T23:32:40.889Z,6.13
2022-10-01T23:35:18.019Z,6.68
2022-10-01T23:38:02.167Z,6.72
2022-10-01T23:40:32.655Z,5.68
2022-10-01T23:43:26.103Z,7.00
2022-10-01T23:46:11.637Z,7.37
2022-10-01T23:48:58.187Z,5.53
2022-10-01T23:51:27.543Z,2.95
2022-10-01T23:54:07.195Z,7.38
2022-10-01T23:56:48.522Z,6.60
2022-10-01T23:59:22.242Z,6.30
